sensor_id;sensor_type;location;lat;lon;timestamp;P1;durP1;ratioP1;P2;durP2;ratioP2
72117;SDS011;59992;47.490;8.736;2022-08-07T00:02:47;15.60;;;8.80;;
72117;SDS011;59992;47.490;8.736;2022-08-07T00:05:35;14.40;;;9.00;;
72117;SDS011;59992;47.490;8.736;2022-08-07T00:08:24;13.40;;;8.90;;
72117;SDS011;59992;47.490;8.736;2022-08-07T00:11:14;13.20;;;8.80;;
72117;SDS011;59992;47.490;8.736;2022-08-07T00:14:02;11.20;;;7.80;;
72117;SDS011;59992;47.490;8.736;2022-08-07T00:16:51;14.50;;;8.90;;
72117;SDS011;59992;47.490;8.736;2022-08-07T00:19:40;14.30;;;9.10;;
72117;SDS011;59992;47.490;8.736;2022-08-07T00:22:28;11.90;;;8.70;;
72117;SDS011;59992;47.490;8.736;2022-08-07T00:25:17;14.10;;;9.40;;
72117;SDS011;59992;47.490;8.736;2022-08-07T00:28:06;14.70;;;9.60;;
72117;SDS011;59992;47.490;8.736;2022-08-07T00:30:55;14.80;;;9.80;;
72117;SDS011;59992;47.490;8.736;2022-08-07T00:33:43;15.60;;;10.20;;
72117;SDS011;59992;47.490;8.736;2022-08-07T00:36:32;14.60;;;9.20;;
72117;SDS011;59992;47.490;8.736;2022-08-07T00:39:21;16.10;;;9.60;;
72117;SDS011;59992;47.490;8.736;2022-08-07T00:42:10;14.00;;;9.40;;
72117;SDS011;59992;47.490;8.736;2022-08-07T00:44:58;15.70;;;9.70;;
72117;SDS011;59992;47.490;8.736;2022-08-07T00:47:47;14.60;;;10.00;;
72117;SDS011;59992;47.490;8.736;2022-08-07T00:50:36;15.50;;;9.50;;
72117;SDS011;59992;47.490;8.736;2022-08-07T00:53:25;13.70;;;9.80;;
72117;SDS011;59992;47.490;8.736;2022-08-07T00:56:14;14.30;;;9.70;;
72117;SDS011;59992;47.490;8.736;2022-08-07T00:59:03;15.00;;;10.40;;
72117;SDS011;59992;47.490;8.736;2022-08-07T01:01:52;14.40;;;9.90;;
72117;SDS011;59992;47.490;8.736;2022-08-07T01:04:41;15.30;;;10.10;;
72117;SDS011;59992;47.490;8.736;2022-08-07T01:07:29;12.90;;;9.30;;
72117;SDS011;59992;47.490;8.736;2022-08-07T01:10:18;16.30;;;9.40;;
72117;SDS011;59992;47.490;8.736;2022-08-07T01:13:07;15.50;;;10.30;;
72117;SDS011;59992;47.490;8.736;2022-08-07T01:15:56;13.50;;;9.60;;
72117;SDS011;59992;47.490;8.736;2022-08-07T01:18:46;14.60;;;9.80;;
72117;SDS011;59992;47.490;8.736;2022-08-07T01:21:35;14.80;;;10.40;;
72117;SDS011;59992;47.490;8.736;2022-08-07T01:24:24;15.90;;;9.70;;
72117;SDS011;59992;47.490;8.736;2022-08-07T01:27:15;15.50;;;10.30;;
72117;SDS011;59992;47.490;8.736;2022-08-07T01:30:05;12.90;;;9.20;;
72117;SDS011;59992;47.490;8.736;2022-08-07T01:32:55;17.20;;;11.10;;
72117;SDS011;59992;47.490;8.736;2022-08-07T01:35:45;13.70;;;9.50;;
72117;SDS011;59992;47.490;8.736;2022-08-07T01:38:34;13.80;;;9.80;;
72117;SDS011;59992;47.490;8.736;2022-08-07T01:41:23;15.80;;;9.60;;
72117;SDS011;59992;47.490;8.736;2022-08-07T01:44:12;15.00;;;9.40;;
72117;SDS011;59992;47.490;8.736;2022-08-07T01:47:01;14.50;;;9.10;;
72117;SDS011;59992;47.490;8.736;2022-08-07T01:49:50;15.60;;;10.30;;
72117;SDS011;59992;47.490;8.736;2022-08-07T01:52:38;13.90;;;9.30;;
72117;SDS011;59992;47.490;8.736;2022-08-07T01:55:28;15.50;;;10.30;;
72117;SDS011;59992;47.490;8.736;2022-08-07T01:58:21;13.90;;;10.30;;
72117;SDS011;59992;47.490;8.736;2022-08-07T02:01:24;17.00;;;10.40;;
72117;SDS011;59992;47.490;8.736;2022-08-07T02:04:19;18.60;;;10.20;;
72117;SDS011;59992;47.490;8.736;2022-08-07T02:07:13;16.40;;;9.70;;
72117;SDS011;59992;47.490;8.736;2022-08-07T02:10:06;15.50;;;9.90;;
72117;SDS011;59992;47.490;8.736;2022-08-07T02:12:57;18.60;;;10.40;;
72117;SDS011;59992;47.490;8.736;2022-08-07T02:15:48;16.30;;;10.30;;
72117;SDS011;59992;47.490;8.736;2022-08-07T02:18:38;13.50;;;9.40;;
72117;SDS011;59992;47.490;8.736;2022-08-07T02:21:28;15.30;;;10.30;;
72117;SDS011;59992;47.490;8.736;2022-08-07T02:24:18;13.80;;;9.90;;
72117;SDS011;59992;47.490;8.736;2022-08-07T02:27:08;14.20;;;9.80;;
72117;SDS011;59992;47.490;8.736;2022-08-07T02:29:57;15.50;;;9.90;;
72117;SDS011;59992;47.490;8.736;2022-08-07T02:32:49;14.60;;;9.60;;
72117;SDS011;59992;47.490;8.736;2022-08-07T02:35:45;12.30;;;9.00;;
72117;SDS011;59992;47.490;8.736;2022-08-07T02:38:41;13.20;;;9.10;;
72117;SDS011;59992;47.490;8.736;2022-08-07T02:41:30;13.90;;;10.00;;
72117;SDS011;59992;47.490;8.736;2022-08-07T02:44:20;15.20;;;9.50;;
72117;SDS011;59992;47.490;8.736;2022-08-07T02:47:13;14.80;;;9.00;;
72117;SDS011;59992;47.490;8.736;2022-08-07T02:50:03;12.40;;;8.80;;
72117;SDS011;59992;47.490;8.736;2022-08-07T02:52:53;12.90;;;9.30;;
72117;SDS011;59992;47.490;8.736;2022-08-07T02:55:46;14.40;;;10.10;;
72117;SDS011;59992;47.490;8.736;2022-08-07T02:58:35;12.60;;;9.50;;
72117;SDS011;59992;47.490;8.736;2022-08-07T03:01:26;14.50;;;9.50;;
72117;SDS011;59992;47.490;8.736;2022-08-07T03:04:15;15.10;;;9.50;;
72117;SDS011;59992;47.490;8.736;2022-08-07T03:07:05;12.60;;;9.20;;
72117;SDS011;59992;47.490;8.736;2022-08-07T03:09:54;13.10;;;8.90;;
72117;SDS011;59992;47.490;8.736;2022-08-07T03:12:43;14.00;;;9.50;;
72117;SDS011;59992;47.490;8.736;2022-08-07T03:15:33;14.40;;;9.30;;
72117;SDS011;59992;47.490;8.736;2022-08-07T03:18:21;13.70;;;8.90;;
72117;SDS011;59992;47.490;8.736;2022-08-07T03:21:10;12.80;;;8.80;;
72117;SDS011;59992;47.490;8.736;2022-08-07T03:23:59;14.10;;;9.40;;
72117;SDS011;59992;47.490;8.736;2022-08-07T03:26:48;14.40;;;9.50;;
72117;SDS011;59992;47.490;8.736;2022-08-07T03:29:39;14.50;;;9.70;;
72117;SDS011;59992;47.490;8.736;2022-08-07T03:32:32;13.20;;;9.30;;
72117;SDS011;59992;47.490;8.736;2022-08-07T03:35:23;19.20;;;9.50;;
72117;SDS011;59992;47.490;8.736;2022-08-07T03:38:13;14.70;;;9.20;;
72117;SDS011;59992;47.490;8.736;2022-08-07T03:41:03;13.00;;;9.60;;
72117;SDS011;59992;47.490;8.736;2022-08-07T03:43:53;15.00;;;10.20;;
72117;SDS011;59992;47.490;8.736;2022-08-07T03:46:43;18.20;;;10.00;;
72117;SDS011;59992;47.490;8.736;2022-08-07T03:49:31;13.60;;;9.50;;
72117;SDS011;59992;47.490;8.736;2022-08-07T03:52:21;13.50;;;9.00;;
72117;SDS011;59992;47.490;8.736;2022-08-07T03:55:13;14.80;;;9.60;;
72117;SDS011;59992;47.490;8.736;2022-08-07T03:58:03;13.40;;;9.40;;
72117;SDS011;59992;47.490;8.736;2022-08-07T04:00:52;13.80;;;8.80;;
72117;SDS011;59992;47.490;8.736;2022-08-07T04:03:43;13.30;;;9.70;;
72117;SDS011;59992;47.490;8.736;2022-08-07T04:06:32;13.40;;;9.30;;
72117;SDS011;59992;47.490;8.736;2022-08-07T04:09:22;13.00;;;8.90;;
72117;SDS011;59992;47.490;8.736;2022-08-07T04:12:11;15.90;;;8.90;;
72117;SDS011;59992;47.490;8.736;2022-08-07T04:15:00;12.30;;;9.00;;
72117;SDS011;59992;47.490;8.736;2022-08-07T04:17:49;13.00;;;9.10;;
72117;SDS011;59992;47.490;8.736;2022-08-07T04:20:38;14.20;;;9.00;;
72117;SDS011;59992;47.490;8.736;2022-08-07T04:23:26;12.80;;;8.40;;
72117;SDS011;59992;47.490;8.736;2022-08-07T04:26:15;13.10;;;8.50;;
72117;SDS011;59992;47.490;8.736;2022-08-07T04:29:05;10.20;;;8.00;;
72117;SDS011;59992;47.490;8.736;2022-08-07T04:31:55;11.40;;;7.80;;
72117;SDS011;59992;47.490;8.736;2022-08-07T04:34:44;11.10;;;7.90;;
72117;SDS011;59992;47.490;8.736;2022-08-07T04:37:36;11.20;;;8.30;;
72117;SDS011;59992;47.490;8.736;2022-08-07T04:40:25;10.70;;;7.90;;
72117;SDS011;59992;47.490;8.736;2022-08-07T04:43:14;12.80;;;7.70;;
72117;SDS011;59992;47.490;8.736;2022-08-07T04:46:06;10.50;;;8.00;;
72117;SDS011;59992;47.490;8.736;2022-08-07T04:48:59;10.80;;;7.80;;
72117;SDS011;59992;47.490;8.736;2022-08-07T04:51:55;10.80;;;7.90;;
72117;SDS011;59992;47.490;8.736;2022-08-07T04:54:51;11.10;;;8.50;;
72117;SDS011;59992;47.490;8.736;2022-08-07T04:57:48;11.90;;;7.90;;
72117;SDS011;59992;47.490;8.736;2022-08-07T05:00:41;11.60;;;7.80;;
72117;SDS011;59992;47.490;8.736;2022-08-07T05:03:46;12.90;;;8.20;;
72117;SDS011;59992;47.490;8.736;2022-08-07T05:06:45;12.10;;;8.30;;
72117;SDS011;59992;47.490;8.736;2022-08-07T05:09:43;11.30;;;7.60;;
72117;SDS011;59992;47.490;8.736;2022-08-07T05:12:38;11.90;;;7.90;;
72117;SDS011;59992;47.490;8.736;2022-08-07T05:15:29;12.40;;;8.30;;
72117;SDS011;59992;47.490;8.736;2022-08-07T05:18:24;10.10;;;8.10;;
72117;SDS011;59992;47.490;8.736;2022-08-07T05:21:16;9.70;;;7.70;;
72117;SDS011;59992;47.490;8.736;2022-08-07T05:24:09;10.50;;;7.70;;
72117;SDS011;59992;47.490;8.736;2022-08-07T05:26:59;12.70;;;7.60;;
72117;SDS011;59992;47.490;8.736;2022-08-07T05:29:50;8.10;;;6.10;;
72117;SDS011;59992;47.490;8.736;2022-08-07T05:32:39;11.00;;;6.60;;
72117;SDS011;59992;47.490;8.736;2022-08-07T05:35:34;8.90;;;7.10;;
72117;SDS011;59992;47.490;8.736;2022-08-07T05:38:23;9.10;;;7.40;;
72117;SDS011;59992;47.490;8.736;2022-08-07T05:41:13;10.40;;;7.10;;
72117;SDS011;59992;47.490;8.736;2022-08-07T05:44:02;8.90;;;6.10;;
72117;SDS011;59992;47.490;8.736;2022-08-07T05:46:51;8.40;;;6.10;;
72117;SDS011;59992;47.490;8.736;2022-08-07T05:49:39;9.60;;;6.60;;
72117;SDS011;59992;47.490;8.736;2022-08-07T05:52:28;8.70;;;6.90;;
72117;SDS011;59992;47.490;8.736;2022-08-07T05:55:18;8.20;;;6.50;;
72117;SDS011;59992;47.490;8.736;2022-08-07T05:58:07;10.00;;;7.80;;
72117;SDS011;59992;47.490;8.736;2022-08-07T06:00:58;9.50;;;7.20;;
72117;SDS011;59992;47.490;8.736;2022-08-07T06:03:49;10.20;;;7.20;;
72117;SDS011;59992;47.490;8.736;2022-08-07T06:06:40;8.40;;;6.80;;
72117;SDS011;59992;47.490;8.736;2022-08-07T06:09:29;9.30;;;6.20;;
72117;SDS011;59992;47.490;8.736;2022-08-07T06:12:18;9.40;;;6.20;;
72117;SDS011;59992;47.490;8.736;2022-08-07T06:15:08;11.50;;;6.60;;
72117;SDS011;59992;47.490;8.736;2022-08-07T06:18:02;10.20;;;7.20;;
72117;SDS011;59992;47.490;8.736;2022-08-07T06:20:51;13.20;;;8.10;;
72117;SDS011;59992;47.490;8.736;2022-08-07T06:23:40;9.70;;;7.90;;
72117;SDS011;59992;47.490;8.736;2022-08-07T06:26:30;11.80;;;8.00;;
72117;SDS011;59992;47.490;8.736;2022-08-07T06:29:19;11.20;;;8.00;;
72117;SDS011;59992;47.490;8.736;2022-08-07T06:32:12;14.40;;;9.10;;
72117;SDS011;59992;47.490;8.736;2022-08-07T06:35:00;11.50;;;8.90;;
72117;SDS011;59992;47.490;8.736;2022-08-07T06:37:50;11.80;;;8.50;;
72117;SDS011;59992;47.490;8.736;2022-08-07T06:40:39;10.60;;;7.60;;
72117;SDS011;59992;47.490;8.736;2022-08-07T06:43:36;13.10;;;8.20;;
72117;SDS011;59992;47.490;8.736;2022-08-07T06:46:27;11.70;;;8.20;;
72117;SDS011;59992;47.490;8.736;2022-08-07T06:49:16;11.40;;;8.60;;
72117;SDS011;59992;47.490;8.736;2022-08-07T06:52:04;14.50;;;8.80;;
72117;SDS011;59992;47.490;8.736;2022-08-07T06:54:56;12.90;;;9.30;;
72117;SDS011;59992;47.490;8.736;2022-08-07T06:57:46;12.00;;;8.30;;
72117;SDS011;59992;47.490;8.736;2022-08-07T07:00:39;10.10;;;7.30;;
72117;SDS011;59992;47.490;8.736;2022-08-07T07:03:33;10.30;;;7.90;;
72117;SDS011;59992;47.490;8.736;2022-08-07T07:06:27;12.50;;;8.90;;
72117;SDS011;59992;47.490;8.736;2022-08-07T07:09:20;11.40;;;8.40;;
72117;SDS011;59992;47.490;8.736;2022-08-07T07:12:29;10.90;;;8.60;;
72117;SDS011;59992;47.490;8.736;2022-08-07T07:15:29;10.90;;;7.30;;
72117;SDS011;59992;47.490;8.736;2022-08-07T07:18:22;11.70;;;8.10;;
72117;SDS011;59992;47.490;8.736;2022-08-07T07:21:15;11.20;;;7.30;;
72117;SDS011;59992;47.490;8.736;2022-08-07T07:24:10;11.10;;;7.80;;
72117;SDS011;59992;47.490;8.736;2022-08-07T07:26:59;11.80;;;8.20;;
72117;SDS011;59992;47.490;8.736;2022-08-07T07:29:50;10.50;;;8.00;;
72117;SDS011;59992;47.490;8.736;2022-08-07T07:32:44;10.20;;;7.40;;
72117;SDS011;59992;47.490;8.736;2022-08-07T07:35:36;10.50;;;7.00;;
72117;SDS011;59992;47.490;8.736;2022-08-07T07:38:25;9.70;;;6.50;;
72117;SDS011;59992;47.490;8.736;2022-08-07T07:41:15;9.60;;;6.90;;
72117;SDS011;59992;47.490;8.736;2022-08-07T07:44:07;9.50;;;7.10;;
72117;SDS011;59992;47.490;8.736;2022-08-07T07:46:58;10.60;;;7.50;;
72117;SDS011;59992;47.490;8.736;2022-08-07T07:49:49;10.30;;;7.40;;
72117;SDS011;59992;47.490;8.736;2022-08-07T07:52:39;11.80;;;7.20;;
72117;SDS011;59992;47.490;8.736;2022-08-07T07:55:31;8.90;;;6.20;;
72117;SDS011;59992;47.490;8.736;2022-08-07T07:58:20;8.80;;;6.70;;
72117;SDS011;59992;47.490;8.736;2022-08-07T08:01:10;12.40;;;6.80;;
72117;SDS011;59992;47.490;8.736;2022-08-07T08:04:01;12.40;;;8.20;;
72117;SDS011;59992;47.490;8.736;2022-08-07T08:06:53;13.40;;;7.50;;
72117;SDS011;59992;47.490;8.736;2022-08-07T08:09:43;8.90;;;6.10;;
72117;SDS011;59992;47.490;8.736;2022-08-07T08:12:38;9.40;;;5.80;;
72117;SDS011;59992;47.490;8.736;2022-08-07T08:15:28;8.60;;;6.40;;
72117;SDS011;59992;47.490;8.736;2022-08-07T08:18:22;11.00;;;6.60;;
72117;SDS011;59992;47.490;8.736;2022-08-07T08:21:14;9.20;;;6.80;;
72117;SDS011;59992;47.490;8.736;2022-08-07T08:24:18;9.80;;;6.60;;
72117;SDS011;59992;47.490;8.736;2022-08-07T08:27:28;9.40;;;6.90;;
72117;SDS011;59992;47.490;8.736;2022-08-07T08:30:21;8.40;;;5.90;;
72117;SDS011;59992;47.490;8.736;2022-08-07T08:33:11;9.80;;;6.40;;
72117;SDS011;59992;47.490;8.736;2022-08-07T08:36:06;12.20;;;6.20;;
72117;SDS011;59992;47.490;8.736;2022-08-07T08:38:57;9.10;;;6.70;;
72117;SDS011;59992;47.490;8.736;2022-08-07T08:41:56;10.60;;;7.50;;
72117;SDS011;59992;47.490;8.736;2022-08-07T08:44:53;9.00;;;6.30;;
72117;SDS011;59992;47.490;8.736;2022-08-07T08:47:51;9.40;;;7.10;;
72117;SDS011;59992;47.490;8.736;2022-08-07T08:50:53;8.50;;;5.60;;
72117;SDS011;59992;47.490;8.736;2022-08-07T08:53:48;11.00;;;6.40;;
72117;SDS011;59992;47.490;8.736;2022-08-07T08:56:43;8.00;;;6.30;;
72117;SDS011;59992;47.490;8.736;2022-08-07T08:59:37;9.30;;;6.60;;
72117;SDS011;59992;47.490;8.736;2022-08-07T09:02:39;9.50;;;6.60;;
72117;SDS011;59992;47.490;8.736;2022-08-07T09:05:36;8.00;;;5.70;;
72117;SDS011;59992;47.490;8.736;2022-08-07T09:08:37;8.50;;;6.80;;
72117;SDS011;59992;47.490;8.736;2022-08-07T09:11:37;8.60;;;6.80;;
72117;SDS011;59992;47.490;8.736;2022-08-07T09:14:31;7.60;;;5.80;;
72117;SDS011;59992;47.490;8.736;2022-08-07T09:17:28;10.20;;;6.20;;
72117;SDS011;59992;47.490;8.736;2022-08-07T09:20:24;8.60;;;5.80;;
72117;SDS011;59992;47.490;8.736;2022-08-07T09:23:21;9.20;;;6.20;;
72117;SDS011;59992;47.490;8.736;2022-08-07T09:26:24;9.70;;;6.20;;
72117;SDS011;59992;47.490;8.736;2022-08-07T09:29:28;8.40;;;6.30;;
72117;SDS011;59992;47.490;8.736;2022-08-07T09:32:30;6.70;;;5.30;;
72117;SDS011;59992;47.490;8.736;2022-08-07T09:35:37;7.50;;;5.20;;
72117;SDS011;59992;47.490;8.736;2022-08-07T09:38:33;9.60;;;5.60;;
72117;SDS011;59992;47.490;8.736;2022-08-07T09:41:33;8.40;;;6.30;;
72117;SDS011;59992;47.490;8.736;2022-08-07T09:44:27;7.60;;;6.00;;
72117;SDS011;59992;47.490;8.736;2022-08-07T09:47:28;7.20;;;5.50;;
72117;SDS011;59992;47.490;8.736;2022-08-07T09:50:33;7.70;;;5.40;;
72117;SDS011;59992;47.490;8.736;2022-08-07T09:53:33;9.20;;;5.80;;
72117;SDS011;59992;47.490;8.736;2022-08-07T09:56:48;7.10;;;5.40;;
72117;SDS011;59992;47.490;8.736;2022-08-07T10:00:03;8.80;;;5.40;;
72117;SDS011;59992;47.490;8.736;2022-08-07T10:03:06;9.30;;;5.50;;
72117;SDS011;59992;47.490;8.736;2022-08-07T10:06:29;7.10;;;4.90;;
72117;SDS011;59992;47.490;8.736;2022-08-07T10:13:20;7.20;;;5.00;;
72117;SDS011;59992;47.490;8.736;2022-08-07T10:16:40;7.30;;;4.60;;
72117;SDS011;59992;47.490;8.736;2022-08-07T10:20:05;7.00;;;4.80;;
72117;SDS011;59992;47.490;8.736;2022-08-07T10:26:31;8.20;;;4.70;;
72117;SDS011;59992;47.490;8.736;2022-08-07T10:29:50;9.10;;;5.00;;
72117;SDS011;59992;47.490;8.736;2022-08-07T10:33:03;6.60;;;4.30;;
72117;SDS011;59992;47.490;8.736;2022-08-07T10:36:10;6.50;;;4.70;;
72117;SDS011;59992;47.490;8.736;2022-08-07T10:39:09;5.60;;;4.30;;
72117;SDS011;59992;47.490;8.736;2022-08-07T10:45:18;5.30;;;4.00;;
72117;SDS011;59992;47.490;8.736;2022-08-07T10:48:15;6.20;;;4.40;;
72117;SDS011;59992;47.490;8.736;2022-08-07T10:51:19;5.60;;;3.90;;
72117;SDS011;59992;47.490;8.736;2022-08-07T10:54:14;5.50;;;3.50;;
72117;SDS011;59992;47.490;8.736;2022-08-07T10:57:09;7.60;;;3.80;;
72117;SDS011;59992;47.490;8.736;2022-08-07T11:00:03;5.90;;;4.10;;
72117;SDS011;59992;47.490;8.736;2022-08-07T11:02:57;34.60;;;18.50;;
72117;SDS011;59992;47.490;8.736;2022-08-07T11:05:53;5.80;;;4.30;;
72117;SDS011;59992;47.490;8.736;2022-08-07T11:08:52;7.40;;;5.10;;
72117;SDS011;59992;47.490;8.736;2022-08-07T11:11:48;12.60;;;8.20;;
72117;SDS011;59992;47.490;8.736;2022-08-07T11:14:45;5.30;;;3.80;;
72117;SDS011;59992;47.490;8.736;2022-08-07T11:17:40;4.90;;;3.20;;
72117;SDS011;59992;47.490;8.736;2022-08-07T11:20:36;4.10;;;3.50;;
72117;SDS011;59992;47.490;8.736;2022-08-07T11:23:35;4.70;;;3.20;;
72117;SDS011;59992;47.490;8.736;2022-08-07T11:26:32;6.00;;;3.50;;
72117;SDS011;59992;47.490;8.736;2022-08-07T11:29:27;4.20;;;3.00;;
72117;SDS011;59992;47.490;8.736;2022-08-07T11:32:29;6.00;;;3.50;;
72117;SDS011;59992;47.490;8.736;2022-08-07T11:35:29;3.30;;;2.70;;
72117;SDS011;59992;47.490;8.736;2022-08-07T11:38:23;6.70;;;3.30;;
72117;SDS011;59992;47.490;8.736;2022-08-07T11:41:22;5.30;;;3.10;;
72117;SDS011;59992;47.490;8.736;2022-08-07T11:44:17;7.30;;;3.20;;
72117;SDS011;59992;47.490;8.736;2022-08-07T11:47:20;7.00;;;3.30;;
72117;SDS011;59992;47.490;8.736;2022-08-07T11:50:19;6.20;;;3.10;;
72117;SDS011;59992;47.490;8.736;2022-08-07T11:53:21;5.10;;;3.40;;
72117;SDS011;59992;47.490;8.736;2022-08-07T11:56:26;4.60;;;3.30;;
72117;SDS011;59992;47.490;8.736;2022-08-07T11:59:32;4.70;;;3.10;;
72117;SDS011;59992;47.490;8.736;2022-08-07T12:02:35;5.10;;;3.40;;
72117;SDS011;59992;47.490;8.736;2022-08-07T12:05:41;7.60;;;3.80;;
72117;SDS011;59992;47.490;8.736;2022-08-07T12:08:43;4.80;;;3.20;;
72117;SDS011;59992;47.490;8.736;2022-08-07T12:11:46;3.70;;;3.00;;
72117;SDS011;59992;47.490;8.736;2022-08-07T12:14:45;3.50;;;2.70;;
72117;SDS011;59992;47.490;8.736;2022-08-07T12:17:38;4.80;;;3.10;;
72117;SDS011;59992;47.490;8.736;2022-08-07T12:20:32;5.90;;;2.70;;
72117;SDS011;59992;47.490;8.736;2022-08-07T12:23:37;4.20;;;3.00;;
72117;SDS011;59992;47.490;8.736;2022-08-07T12:26:33;2.90;;;2.50;;
72117;SDS011;59992;47.490;8.736;2022-08-07T12:29:30;4.80;;;2.50;;
72117;SDS011;59992;47.490;8.736;2022-08-07T12:32:25;3.80;;;2.50;;
72117;SDS011;59992;47.490;8.736;2022-08-07T12:35:17;3.60;;;2.60;;
72117;SDS011;59992;47.490;8.736;2022-08-07T12:38:07;4.20;;;2.50;;
72117;SDS011;59992;47.490;8.736;2022-08-07T12:40:57;3.90;;;2.60;;
72117;SDS011;59992;47.490;8.736;2022-08-07T12:43:47;3.30;;;2.10;;
72117;SDS011;59992;47.490;8.736;2022-08-07T12:46:42;2.90;;;2.20;;
72117;SDS011;59992;47.490;8.736;2022-08-07T12:49:58;3.60;;;2.40;;
72117;SDS011;59992;47.490;8.736;2022-08-07T12:52:58;2.20;;;1.90;;
72117;SDS011;59992;47.490;8.736;2022-08-07T12:55:59;2.80;;;2.30;;
72117;SDS011;59992;47.490;8.736;2022-08-07T12:58:56;3.00;;;2.30;;
72117;SDS011;59992;47.490;8.736;2022-08-07T13:01:55;6.40;;;2.10;;
72117;SDS011;59992;47.490;8.736;2022-08-07T13:04:58;3.10;;;1.90;;
72117;SDS011;59992;47.490;8.736;2022-08-07T13:08:00;5.40;;;2.40;;
72117;SDS011;59992;47.490;8.736;2022-08-07T13:11:02;2.70;;;1.90;;
72117;SDS011;59992;47.490;8.736;2022-08-07T13:14:14;3.20;;;1.90;;
72117;SDS011;59992;47.490;8.736;2022-08-07T13:17:16;2.80;;;1.90;;
72117;SDS011;59992;47.490;8.736;2022-08-07T13:20:14;3.40;;;2.00;;
72117;SDS011;59992;47.490;8.736;2022-08-07T13:23:13;3.80;;;2.10;;
72117;SDS011;59992;47.490;8.736;2022-08-07T13:26:10;3.50;;;2.10;;
72117;SDS011;59992;47.490;8.736;2022-08-07T13:29:07;4.40;;;2.10;;
72117;SDS011;59992;47.490;8.736;2022-08-07T13:32:02;2.20;;;1.80;;
72117;SDS011;59992;47.490;8.736;2022-08-07T13:34:58;4.00;;;2.30;;
72117;SDS011;59992;47.490;8.736;2022-08-07T13:37:56;2.70;;;1.80;;
72117;SDS011;59992;47.490;8.736;2022-08-07T13:40:52;5.00;;;2.00;;
72117;SDS011;59992;47.490;8.736;2022-08-07T13:43:52;3.10;;;1.80;;
72117;SDS011;59992;47.490;8.736;2022-08-07T13:46:44;2.80;;;1.90;;
72117;SDS011;59992;47.490;8.736;2022-08-07T13:49:34;2.40;;;1.80;;
72117;SDS011;59992;47.490;8.736;2022-08-07T13:52:26;3.10;;;2.00;;
72117;SDS011;59992;47.490;8.736;2022-08-07T13:55:17;2.60;;;2.10;;
72117;SDS011;59992;47.490;8.736;2022-08-07T13:58:07;2.80;;;2.20;;
72117;SDS011;59992;47.490;8.736;2022-08-07T14:01:17;3.10;;;2.10;;
72117;SDS011;59992;47.490;8.736;2022-08-07T14:04:07;3.60;;;1.70;;
72117;SDS011;59992;47.490;8.736;2022-08-07T14:06:58;2.30;;;1.90;;
72117;SDS011;59992;47.490;8.736;2022-08-07T14:09:51;5.90;;;2.30;;
72117;SDS011;59992;47.490;8.736;2022-08-07T14:12:43;4.90;;;2.30;;
72117;SDS011;59992;47.490;8.736;2022-08-07T14:15:41;3.90;;;2.40;;
72117;SDS011;59992;47.490;8.736;2022-08-07T14:18:31;2.80;;;2.10;;
72117;SDS011;59992;47.490;8.736;2022-08-07T14:21:25;3.70;;;2.40;;
72117;SDS011;59992;47.490;8.736;2022-08-07T14:24:19;3.00;;;2.40;;
72117;SDS011;59992;47.490;8.736;2022-08-07T14:27:13;5.00;;;2.20;;
72117;SDS011;59992;47.490;8.736;2022-08-07T14:30:07;3.40;;;2.20;;
72117;SDS011;59992;47.490;8.736;2022-08-07T14:32:58;2.30;;;1.90;;
72117;SDS011;59992;47.490;8.736;2022-08-07T14:35:52;3.80;;;2.00;;
72117;SDS011;59992;47.490;8.736;2022-08-07T14:38:44;2.60;;;1.90;;
72117;SDS011;59992;47.490;8.736;2022-08-07T14:41:35;2.90;;;1.80;;
72117;SDS011;59992;47.490;8.736;2022-08-07T14:44:26;4.30;;;1.80;;
72117;SDS011;59992;47.490;8.736;2022-08-07T14:47:16;3.30;;;2.00;;
72117;SDS011;59992;47.490;8.736;2022-08-07T14:50:07;3.90;;;2.00;;
72117;SDS011;59992;47.490;8.736;2022-08-07T14:53:04;3.30;;;1.90;;
72117;SDS011;59992;47.490;8.736;2022-08-07T14:55:54;3.80;;;2.10;;
72117;SDS011;59992;47.490;8.736;2022-08-07T14:58:44;3.70;;;1.90;;
72117;SDS011;59992;47.490;8.736;2022-08-07T15:01:38;5.20;;;1.90;;
72117;SDS011;59992;47.490;8.736;2022-08-07T15:04:28;3.00;;;2.10;;
72117;SDS011;59992;47.490;8.736;2022-08-07T15:07:18;3.60;;;2.10;;
72117;SDS011;59992;47.490;8.736;2022-08-07T15:10:10;2.70;;;1.80;;
72117;SDS011;59992;47.490;8.736;2022-08-07T15:13:09;3.40;;;1.70;;
72117;SDS011;59992;47.490;8.736;2022-08-07T15:16:09;3.00;;;2.00;;
72117;SDS011;59992;47.490;8.736;2022-08-07T15:19:00;2.40;;;1.80;;
72117;SDS011;59992;47.490;8.736;2022-08-07T15:21:52;3.10;;;1.90;;
72117;SDS011;59992;47.490;8.736;2022-08-07T15:24:46;5.70;;;2.10;;
72117;SDS011;59992;47.490;8.736;2022-08-07T15:27:41;2.30;;;1.80;;
72117;SDS011;59992;47.490;8.736;2022-08-07T15:30:33;2.90;;;1.70;;
72117;SDS011;59992;47.490;8.736;2022-08-07T15:33:24;1.80;;;1.60;;
72117;SDS011;59992;47.490;8.736;2022-08-07T15:36:13;2.30;;;1.70;;
72117;SDS011;59992;47.490;8.736;2022-08-07T15:39:04;2.80;;;1.80;;
72117;SDS011;59992;47.490;8.736;2022-08-07T15:41:57;3.40;;;2.10;;
72117;SDS011;59992;47.490;8.736;2022-08-07T15:44:48;2.90;;;2.00;;
72117;SDS011;59992;47.490;8.736;2022-08-07T15:47:38;2.30;;;1.70;;
72117;SDS011;59992;47.490;8.736;2022-08-07T15:50:36;4.60;;;2.00;;
72117;SDS011;59992;47.490;8.736;2022-08-07T15:53:27;3.10;;;2.00;;
72117;SDS011;59992;47.490;8.736;2022-08-07T15:56:21;4.70;;;2.10;;
72117;SDS011;59992;47.490;8.736;2022-08-07T15:59:16;3.10;;;2.10;;
72117;SDS011;59992;47.490;8.736;2022-08-07T16:02:11;2.90;;;2.00;;
72117;SDS011;59992;47.490;8.736;2022-08-07T16:05:10;5.10;;;2.20;;
72117;SDS011;59992;47.490;8.736;2022-08-07T16:08:05;3.70;;;1.90;;
72117;SDS011;59992;47.490;8.736;2022-08-07T16:10:59;3.70;;;2.40;;
72117;SDS011;59992;47.490;8.736;2022-08-07T16:13:53;4.20;;;1.90;;
72117;SDS011;59992;47.490;8.736;2022-08-07T16:16:51;4.10;;;2.30;;
72117;SDS011;59992;47.490;8.736;2022-08-07T16:19:58;3.30;;;2.10;;
72117;SDS011;59992;47.490;8.736;2022-08-07T16:26:31;4.20;;;2.30;;
72117;SDS011;59992;47.490;8.736;2022-08-07T16:29:30;3.50;;;2.30;;
72117;SDS011;59992;47.490;8.736;2022-08-07T16:32:39;3.80;;;2.20;;
72117;SDS011;59992;47.490;8.736;2022-08-07T16:35:32;3.90;;;2.20;;
72117;SDS011;59992;47.490;8.736;2022-08-07T16:38:29;3.70;;;2.10;;
72117;SDS011;59992;47.490;8.736;2022-08-07T16:41:30;3.20;;;2.40;;
72117;SDS011;59992;47.490;8.736;2022-08-07T16:44:32;4.20;;;2.00;;
72117;SDS011;59992;47.490;8.736;2022-08-07T16:47:55;3.90;;;2.30;;
72117;SDS011;59992;47.490;8.736;2022-08-07T16:50:59;2.50;;;2.10;;
72117;SDS011;59992;47.490;8.736;2022-08-07T16:54:03;5.40;;;2.40;;
72117;SDS011;59992;47.490;8.736;2022-08-07T16:57:10;3.80;;;2.10;;
72117;SDS011;59992;47.490;8.736;2022-08-07T17:00:11;2.40;;;2.10;;
72117;SDS011;59992;47.490;8.736;2022-08-07T17:03:14;2.70;;;2.10;;
72117;SDS011;59992;47.490;8.736;2022-08-07T17:06:10;3.10;;;2.10;;
72117;SDS011;59992;47.490;8.736;2022-08-07T17:09:18;3.20;;;2.10;;
72117;SDS011;59992;47.490;8.736;2022-08-07T17:12:19;4.10;;;2.40;;
72117;SDS011;59992;47.490;8.736;2022-08-07T17:15:17;3.50;;;2.10;;
72117;SDS011;59992;47.490;8.736;2022-08-07T17:18:15;4.60;;;2.30;;
72117;SDS011;59992;47.490;8.736;2022-08-07T17:21:15;2.70;;;2.40;;
72117;SDS011;59992;47.490;8.736;2022-08-07T17:24:18;3.30;;;2.40;;
72117;SDS011;59992;47.490;8.736;2022-08-07T17:27:18;5.10;;;2.00;;
72117;SDS011;59992;47.490;8.736;2022-08-07T17:30:17;4.10;;;2.00;;
72117;SDS011;59992;47.490;8.736;2022-08-07T17:33:17;3.90;;;2.30;;
72117;SDS011;59992;47.490;8.736;2022-08-07T17:36:13;4.30;;;2.30;;
72117;SDS011;59992;47.490;8.736;2022-08-07T17:39:05;3.40;;;2.10;;